Time;durP1;ratioP1;P1;durP2;ratioP2;P2;SDS_P1;SDS_P2;PMS_P1;PMS_P2;Temp;Humidity;BMP_temperature;BMP_pressure;BME280_temperature;BME280_humidity;BME280_pressure;Samples;Min_cycle;Max_cycle;Signal;HPM_P1;HPM_P2
2022/11/17 00:00:29;;;;;;;8.50;8.20;;;5.90;99.90;;;;;;5053123;28;20021;-73
2022/11/17 00:02:55;;;;;;;8.23;7.93;;;5.90;99.90;;;;;;5053042;28;20079;-73
2022/11/17 00:05:21;;;;;;;8.25;7.95;;;5.80;99.90;;;;;;5054309;28;20112;-73
2022/11/17 00:07:48;;;;;;;8.25;7.95;;;5.60;99.90;;;;;;5054011;28;20041;-74
2022/11/17 00:10:15;;;;;;;8.55;8.25;;;5.70;99.90;;;;;;5061389;28;20078;-74
2022/11/17 00:15:25;;;;;;;8.20;7.90;;;5.70;99.90;;;;;;5074180;28;20103;-74
2022/11/17 00:23:23;;;;;;;8.70;8.40;;;5.80;99.90;;;;;;5074397;28;20043;-74
2022/11/17 00:25:49;;;;;;;9.93;9.60;;;5.80;99.90;;;;;;5073854;28;20036;-74
2022/11/17 00:28:15;;;;;;;8.90;8.60;;;5.80;99.90;;;;;;5073634;28;20047;-74
2022/11/17 00:36:08;;;;;;;9.10;8.80;;;5.60;99.90;;;;;;5054062;28;20153;-74
2022/11/17 00:38:34;;;;;;;10.02;9.65;;;5.50;99.90;;;;;;5053513;28;20514;-74
2022/11/17 00:40:59;;;;;;;9.38;9.07;;;5.50;99.90;;;;;;5067037;28;20029;-75
2022/11/17 00:43:25;;;;;;;9.95;9.65;;;5.50;99.90;;;;;;5053656;28;20491;-75
2022/11/17 00:45:50;;;;;;;11.15;10.75;;;5.40;99.90;;;;;;5072770;28;20024;-75
2022/11/17 00:48:16;;;;;;;9.85;9.55;;;5.40;99.90;;;;;;5073408;28;20108;-75
2022/11/17 00:50:41;;;;;;;9.02;8.73;;;5.40;99.90;;;;;;5058689;28;20040;-75
2022/11/17 00:53:07;;;;;;;9.20;8.90;;;5.40;99.90;;;;;;5061136;28;20123;-75
2022/11/17 00:55:33;;;;;;;8.27;7.97;;;5.40;99.90;;;;;;5072300;28;20090;-75
2022/11/17 00:57:58;;;;;;;8.70;8.40;;;5.50;99.90;;;;;;5061198;28;20086;-75
2022/11/17 01:00:24;;;;;;;11.40;11.00;;;5.50;99.90;;;;;;5066742;28;20044;-75
2022/11/17 01:02:49;;;;;;;10.57;10.18;;;5.70;99.90;;;;;;5065479;28;20028;-75
2022/11/17 01:05:15;;;;;;;10.43;10.02;;;5.70;99.90;;;;;;5058466;28;20024;-74
2022/11/17 01:07:40;;;;;;;9.20;8.90;;;5.70;99.90;;;;;;5072864;28;20032;-74
2022/11/17 01:10:06;;;;;;;9.75;9.45;;;5.80;99.90;;;;;;5073122;28;20028;-74
2022/11/17 01:12:32;;;;;;;10.40;10.00;;;5.80;99.90;;;;;;5073099;28;20027;-73
2022/11/17 01:14:57;;;;;;;9.50;9.20;;;5.90;99.90;;;;;;5067144;28;20044;-73
2022/11/17 01:17:24;;;;;;;9.40;9.10;;;5.90;99.90;;;;;;5065585;28;20479;-74
2022/11/17 01:19:49;;;;;;;10.70;10.30;;;5.80;99.90;;;;;;5072852;28;20028;-74
2022/11/17 01:22:15;;;;;;;11.25;10.85;;;5.80;99.90;;;;;;5072914;28;20170;-73
2022/11/17 01:24:40;;;;;;;10.45;10.05;;;5.90;99.90;;;;;;5072702;28;20039;-73
2022/11/17 01:27:06;;;;;;;10.43;10.02;;;6.00;99.90;;;;;;5072579;28;20024;-74
2022/11/17 01:29:31;;;;;;;10.68;10.27;;;6.00;99.90;;;;;;5067616;28;20025;-74
2022/11/17 01:31:57;;;;;;;10.93;10.52;;;6.00;99.90;;;;;;5063573;28;20375;-74
2022/11/17 01:34:23;;;;;;;10.20;9.82;;;6.00;99.90;;;;;;5072935;28;20039;-73
2022/11/17 01:39:32;;;;;;;9.68;9.38;;;6.00;99.90;;;;;;5061144;28;20036;-73
2022/11/17 01:42:03;;;;;;;10.55;10.15;;;6.10;99.90;;;;;;5071405;28;20028;-73
2022/11/17 01:44:35;;;;;;;11.77;11.38;;;5.90;99.90;;;;;;5064604;28;20090;-73
2022/11/17 01:47:02;;;;;;;11.13;10.73;;;5.90;99.90;;;;;;5067274;28;20039;-73
2022/11/17 01:49:28;;;;;;;11.55;11.15;;;6.00;99.90;;;;;;5072345;28;20406;-73
2022/11/17 01:52:00;;;;;;;11.20;10.80;;;6.00;99.90;;;;;;5070953;28;20115;-73
2022/11/17 01:54:28;;;;;;;11.60;11.20;;;6.00;99.90;;;;;;5072371;28;20107;-73
2022/11/17 01:56:59;;;;;;;10.23;9.82;;;5.70;99.90;;;;;;5067364;28;20029;-73
2022/11/17 01:59:38;;;;;;;13.15;12.65;;;5.60;99.90;;;;;;5062724;28;20573;-74
2022/11/17 02:02:03;;;;;;;11.35;10.95;;;5.60;99.90;;;;;;5070894;28;20024;-73
2022/11/17 02:04:48;;;;;;;12.27;11.88;;;5.60;99.90;;;;;;5072089;28;20086;-74
2022/11/17 02:07:23;;;;;;;12.27;11.88;;;5.70;99.90;;;;;;5070709;28;20050;-74
2022/11/17 02:09:50;;;;;;;11.30;10.90;;;5.80;99.90;;;;;;5068178;28;20024;-73
2022/11/17 02:12:17;;;;;;;11.40;11.00;;;5.90;99.90;;;;;;5050611;28;20060;-74
2022/11/17 02:14:43;;;;;;;11.68;11.27;;;5.90;99.90;;;;;;5065341;28;20406;-74
2022/11/17 02:17:10;;;;;;;10.85;10.45;;;5.90;99.90;;;;;;5062518;28;20028;-74
2022/11/17 02:19:39;;;;;;;10.80;10.40;;;6.00;99.90;;;;;;5071861;28;20055;-74
2022/11/17 02:22:31;;;;;;;10.70;10.30;;;6.00;99.90;;;;;;5060754;28;20368;-74
2022/11/17 02:25:26;;;;;;;10.85;10.45;;;6.00;99.90;;;;;;5051766;28;20025;-74
2022/11/17 02:28:19;;;;;;;10.40;10.00;;;6.00;99.90;;;;;;5056796;28;20024;-74
2022/11/17 02:31:18;;;;;;;9.38;9.07;;;5.90;99.90;;;;;;5071704;28;20025;-73
2022/11/17 02:34:17;;;;;;;11.45;11.05;;;5.90;99.90;;;;;;5058206;28;20120;-74
2022/11/17 02:37:08;;;;;;;10.88;10.48;;;5.90;99.90;;;;;;5059883;28;20060;-74
2022/11/17 02:39:49;;;;;;;10.40;10.00;;;6.00;99.90;;;;;;5064628;28;20056;-74
2022/11/17 02:45:35;;;;;;;9.70;9.40;;;6.00;99.90;;;;;;5058200;28;20098;-74
2022/11/17 02:48:08;;;;;;;10.32;9.93;;;6.00;99.90;;;;;;5071279;28;20580;-74
2022/11/17 02:50:35;;;;;;;11.52;11.13;;;6.10;99.90;;;;;;5071611;28;20021;-74
2022/11/17 02:53:01;;;;;;;13.63;13.05;;;6.10;99.90;;;;;;5075739;28;20548;-74
2022/11/17 02:55:32;;;;;;;12.23;11.82;;;6.10;99.90;;;;;;5077921;28;20120;-73
2022/11/17 02:57:57;;;;;;;14.82;14.13;;;6.00;99.90;;;;;;5077976;28;20028;-73
2022/11/17 03:00:23;;;;;;;12.18;11.77;;;5.90;99.90;;;;;;5078140;28;20090;-73
2022/11/17 03:03:15;;;;;;;12.82;12.32;;;5.80;99.90;;;;;;5064351;28;20490;-74
2022/11/17 03:06:08;;;;;;;12.85;12.38;;;5.80;99.90;;;;;;5066115;28;20024;-74
2022/11/17 03:08:53;;;;;;;13.10;12.60;;;5.80;99.90;;;;;;5077775;28;20032;-74
2022/11/17 03:11:28;;;;;;;13.07;12.57;;;5.80;99.90;;;;;;5072754;28;20027;-74
2022/11/17 03:14:14;;;;;;;12.90;12.40;;;5.90;99.90;;;;;;5056680;28;20025;-74
2022/11/17 03:17:03;;;;;;;13.13;12.63;;;6.00;99.90;;;;;;5069847;28;20079;-74
2022/11/17 03:19:36;;;;;;;12.25;11.85;;;6.00;99.90;;;;;;5057901;28;20037;-74
2022/11/17 03:22:17;;;;;;;13.52;13.02;;;6.00;99.90;;;;;;5058347;28;20112;-75
2022/11/17 03:24:53;;;;;;;12.10;11.70;;;6.00;99.90;;;;;;5056515;28;20029;-74
2022/11/17 03:27:25;;;;;;;12.30;11.90;;;6.10;99.90;;;;;;5056340;28;20029;-75
2022/11/17 03:29:56;;;;;;;13.07;12.57;;;6.20;99.90;;;;;;5057810;28;20029;-74
2022/11/17 03:32:23;;;;;;;12.07;11.68;;;6.20;99.90;;;;;;5057988;28;20027;-73
2022/11/17 03:34:54;;;;;;;12.00;11.60;;;6.40;99.90;;;;;;5066559;28;20066;-74
2022/11/17 03:37:22;;;;;;;14.30;13.80;;;6.40;99.90;;;;;;5063000;28;20081;-73
2022/11/17 03:39:52;;;;;;;12.18;11.77;;;6.50;99.90;;;;;;5068183;28;20547;-74
2022/11/17 03:42:30;;;;;;;11.57;11.18;;;6.50;99.90;;;;;;5074906;28;20028;-73
2022/11/17 03:45:01;;;;;;;12.45;12.05;;;6.40;99.90;;;;;;5077783;28;20059;-74
2022/11/17 03:47:28;;;;;;;11.13;10.73;;;6.60;99.90;;;;;;5064053;28;20478;-74
2022/11/17 03:50:00;;;;;;;12.07;11.68;;;6.60;99.90;;;;;;5076375;28;20490;-74
2022/11/17 03:52:28;;;;;;;13.05;12.55;;;6.60;99.90;;;;;;5059857;28;20167;-74
2022/11/17 03:54:54;;;;;;;14.48;13.98;;;6.70;99.90;;;;;;5071262;28;20025;-73
2022/11/17 03:57:32;;;;;;;13.00;12.50;;;6.70;99.90;;;;;;5077506;28;20469;-73
2022/11/17 04:00:05;;;;;;;12.25;11.85;;;6.60;99.90;;;;;;5064050;28;20059;-73
2022/11/17 04:02:31;;;;;;;12.43;12.02;;;6.70;99.90;;;;;;5067714;28;20392;-73
2022/11/17 04:05:05;;;;;;;13.18;12.68;;;6.60;99.90;;;;;;5070216;28;20027;-73
2022/11/17 04:07:41;;;;;;;14.35;13.85;;;6.70;99.90;;;;;;5062466;28;20403;-73
2022/11/17 04:10:12;;;;;;;14.10;13.60;;;6.60;99.90;;;;;;5071709;28;20029;-73
2022/11/17 04:16:22;;;;;;;13.63;13.13;;;6.70;99.90;;;;;;5064934;28;20035;-73
2022/11/17 04:18:18;;;;;;;13.63;13.13;;;6.70;99.90;;;;;;5047485;28;20047;-73
2022/11/17 04:20:44;;;;;;;13.15;12.65;;;6.60;99.90;;;;;;5074204;28;20031;-73
2022/11/17 04:23:14;;;;;;;13.95;13.45;;;6.60;99.90;;;;;;5067473;28;20033;-73
2022/11/17 04:28:35;;;;;;;12.50;12.10;;;6.70;99.90;;;;;;5073763;28;20547;-73
2022/11/17 04:31:07;;;;;;;12.20;11.80;;;6.60;99.90;;;;;;5068386;28;20024;-73
2022/11/17 04:33:33;;;;;;;13.00;12.50;;;6.60;99.90;;;;;;5065909;28;20028;-73
2022/11/17 04:35:59;;;;;;;12.68;12.23;;;6.60;99.90;;;;;;5059020;28;20482;-73
2022/11/17 04:38:25;;;;;;;12.85;12.35;;;6.60;99.90;;;;;;5073592;28;20052;-73
2022/11/17 04:43:37;;;;;;;12.40;12.00;;;6.70;99.90;;;;;;5074136;28;20027;-73
2022/11/17 04:46:03;;;;;;;14.38;13.88;;;6.70;99.90;;;;;;5073623;28;20075;-73
2022/11/17 04:48:28;;;;;;;12.00;11.60;;;6.70;99.90;;;;;;5073314;28;20833;-73
2022/11/17 04:50:55;;;;;;;13.45;12.95;;;6.70;99.90;;;;;;5066252;28;20021;-73
2022/11/17 04:53:22;;;;;;;12.98;12.48;;;6.70;99.90;;;;;;5067617;28;20032;-74
2022/11/17 04:55:47;;;;;;;11.82;11.43;;;6.70;99.90;;;;;;5073264;28;20465;-73
2022/11/17 04:58:13;;;;;;;13.50;13.00;;;6.70;99.90;;;;;;5071007;28;20052;-74
2022/11/17 05:00:39;;;;;;;12.68;12.20;;;6.70;99.90;;;;;;5053422;28;20033;-74
2022/11/17 05:03:04;;;;;;;12.13;11.73;;;6.80;99.90;;;;;;5053733;28;20025;-73
2022/11/17 05:05:30;;;;;;;13.30;12.80;;;6.80;99.90;;;;;;5073213;28;20103;-73
2022/11/17 05:07:55;;;;;;;13.60;13.10;;;6.80;99.90;;;;;;5057787;28;20471;-73
2022/11/17 05:13:20;;;;;;;13.15;12.65;;;6.80;99.90;;;;;;5064009;28;20577;-72
2022/11/17 05:13:21;;;;;;;14.70;14.20;;;6.80;99.90;;;;;;5073226;28;20521;-72
2022/11/17 05:18:32;;;;;;;13.38;12.88;;;6.80;99.90;;;;;;5061172;28;20039;-73
2022/11/17 05:21:02;;;;;;;11.43;11.02;;;6.80;99.90;;;;;;5072921;28;20028;-72
2022/11/17 05:26:12;;;;;;;12.98;12.48;;;6.80;99.90;;;;;;5072767;28;20063;-72
2022/11/17 05:28:37;;;;;;;12.07;11.68;;;6.80;99.90;;;;;;5072507;28;20056;-73
2022/11/17 05:31:03;;;;;;;14.38;13.88;;;6.80;99.90;;;;;;5072695;28;20029;-73
2022/11/17 05:33:28;;;;;;;12.25;11.85;;;6.80;99.90;;;;;;5061746;28;20025;-74
2022/11/17 05:35:54;;;;;;;13.20;12.70;;;6.80;99.90;;;;;;5068890;28;20505;-73
2022/11/17 05:38:19;;;;;;;14.32;13.82;;;6.90;99.90;;;;;;5072317;28;20041;-73
2022/11/17 05:40:45;;;;;;;12.98;12.48;;;6.90;99.90;;;;;;5072546;28;20029;-73
2022/11/17 05:43:10;;;;;;;14.63;14.07;;;6.90;99.90;;;;;;5072587;28;20047;-73
2022/11/17 05:45:36;;;;;;;14.70;14.20;;;6.90;99.90;;;;;;5071029;28;20039;-73
2022/11/17 05:48:01;;;;;;;15.90;15.30;;;7.00;99.90;;;;;;5072082;28;20036;-73
2022/11/17 05:50:27;;;;;;;14.52;14.02;;;7.00;99.90;;;;;;5072307;28;20033;-73
2022/11/17 05:52:52;;;;;;;15.75;15.15;;;7.00;99.90;;;;;;5072235;28;20099;-73
2022/11/17 05:55:18;;;;;;;14.50;14.00;;;7.00;99.90;;;;;;5068227;28;20021;-73
2022/11/17 05:57:44;;;;;;;14.20;13.70;;;7.00;99.90;;;;;;5062477;28;20070;-73
2022/11/17 06:00:10;;;;;;;13.60;13.10;;;7.00;99.90;;;;;;5072155;28;20048;-73
2022/11/17 06:02:42;;;;;;;15.68;15.07;;;7.00;99.90;;;;;;5067376;28;20039;-72
2022/11/17 06:05:09;;;;;;;14.10;13.60;;;7.00;99.90;;;;;;5077222;28;20043;-73
2022/11/17 06:07:35;;;;;;;15.15;14.65;;;6.90;99.90;;;;;;5050625;28;20025;-73
2022/11/17 06:10:02;;;;;;;13.60;13.10;;;7.00;99.90;;;;;;5051907;28;20445;-74
2022/11/17 06:12:27;;;;;;;13.80;13.30;;;7.00;99.90;;;;;;5062842;28;20044;-73
2022/11/17 06:14:53;;;;;;;14.55;14.05;;;7.00;99.90;;;;;;5070417;28;20056;-74
2022/11/17 06:17:32;;;;;;;15.00;14.50;;;7.00;99.90;;;;;;5059030;28;20056;-73
2022/11/17 06:20:20;;;;;;;14.10;13.60;;;7.00;99.90;;;;;;5058620;28;20490;-74
2022/11/17 06:22:47;;;;;;;16.77;16.17;;;7.10;99.90;;;;;;5069893;28;20032;-75
2022/11/17 06:25:13;;;;;;;15.98;15.38;;;7.10;99.90;;;;;;5070534;28;20490;-73
2022/11/17 06:27:40;;;;;;;16.65;16.05;;;7.10;99.90;;;;;;5070918;28;20115;-74
2022/11/17 06:30:06;;;;;;;16.25;15.65;;;7.20;99.90;;;;;;5071827;28;20017;-74
2022/11/17 06:32:37;;;;;;;14.50;14.00;;;7.20;99.90;;;;;;5058149;28;20045;-73
2022/11/17 06:35:06;;;;;;;14.68;14.18;;;7.20;99.90;;;;;;5071581;28;20059;-72
2022/11/17 06:37:31;;;;;;;14.30;13.80;;;7.20;99.90;;;;;;5071367;28;20051;-73
2022/11/17 06:39:57;;;;;;;13.40;12.90;;;7.20;99.90;;;;;;5071739;28;20060;-73
2022/11/17 06:43:02;;;;;;;17.17;16.58;;;7.20;99.90;;;;;;5070351;28;20020;-73
2022/11/17 06:45:09;;;;;;;16.45;15.85;;;7.20;99.90;;;;;;5071440;28;20388;-73
2022/11/17 06:47:34;;;;;;;16.13;15.52;;;7.20;99.90;;;;;;5071327;28;20036;-75
2022/11/17 06:50:00;;;;;;;16.70;16.10;;;7.20;99.90;;;;;;5071378;28;20393;-73
2022/11/17 06:52:25;;;;;;;14.75;14.25;;;7.20;99.90;;;;;;5071563;28;20052;-75
2022/11/17 06:54:51;;;;;;;15.90;15.30;;;7.20;99.90;;;;;;5057593;28;20095;-74
2022/11/17 06:57:17;;;;;;;15.70;15.10;;;7.20;99.90;;;;;;5051159;28;20078;-73
2022/11/17 06:59:42;;;;;;;16.08;15.48;;;7.10;99.90;;;;;;5050050;28;20029;-74
2022/11/17 07:02:08;;;;;;;15.02;14.52;;;7.10;99.90;;;;;;5050174;28;20517;-74
2022/11/17 07:04:34;;;;;;;16.48;15.88;;;7.10;99.90;;;;;;5051371;28;20035;-73
2022/11/17 07:06:59;;;;;;;14.77;14.27;;;7.10;99.90;;;;;;5057917;28;20032;-74
2022/11/17 07:09:25;;;;;;;13.77;13.27;;;7.20;99.90;;;;;;5071290;28;20518;-74
2022/11/17 07:11:51;;;;;;;14.05;13.55;;;7.20;99.90;;;;;;5071406;28;20020;-74
2022/11/17 07:14:16;;;;;;;15.48;14.88;;;7.20;99.90;;;;;;5071069;28;20096;-73
2022/11/17 07:16:42;;;;;;;15.25;14.55;;;7.30;99.90;;;;;;5064432;28;20079;-74
2022/11/17 07:19:09;;;;;;;14.60;14.00;;;7.30;99.90;;;;;;5049796;28;20035;-72
2022/11/17 07:21:35;;;;;;;14.50;14.00;;;7.30;99.90;;;;;;5051189;28;20031;-73
2022/11/17 07:24:01;;;;;;;14.90;14.40;;;7.30;99.90;;;;;;5051130;28;20446;-73
2022/11/17 07:26:26;;;;;;;13.48;12.98;;;7.30;99.90;;;;;;5049997;28;20049;-75
2022/11/17 07:28:52;;;;;;;14.27;13.75;;;7.30;99.90;;;;;;5050943;28;20506;-74
2022/11/17 07:31:17;;;;;;;13.73;13.23;;;7.40;99.90;;;;;;5051055;28;20364;-74
2022/11/17 07:33:43;;;;;;;14.27;13.75;;;7.40;99.90;;;;;;5051133;28;20498;-74
2022/11/17 07:36:11;;;;;;;13.65;13.15;;;7.40;99.90;;;;;;5049813;28;20478;-74
2022/11/17 07:38:38;;;;;;;14.77;14.25;;;7.40;99.90;;;;;;5049572;28;20559;-73
2022/11/17 07:41:05;;;;;;;14.70;14.10;;;7.40;99.90;;;;;;5053247;28;20123;-73
2022/11/17 07:43:32;;;;;;;15.82;15.02;;;7.40;99.90;;;;;;5054708;28;20021;-73
2022/11/17 07:45:57;;;;;;;17.00;16.30;;;7.50;99.90;;;;;;5054756;28;20044;-73
2022/11/17 07:48:23;;;;;;;15.70;15.00;;;7.40;99.90;;;;;;5067604;28;20016;-73
2022/11/17 07:50:48;;;;;;;18.02;17.33;;;7.40;99.90;;;;;;5074819;28;20113;-73
2022/11/17 07:53:14;;;;;;;16.73;15.98;;;7.40;99.90;;;;;;5058297;28;20326;-73
2022/11/17 07:55:39;;;;;;;16.65;15.80;;;7.40;99.90;;;;;;5054260;28;20376;-74
2022/11/17 07:58:05;;;;;;;17.35;16.67;;;7.40;99.90;;;;;;5054150;28;20103;-73
2022/11/17 08:00:32;;;;;;;16.40;15.80;;;7.40;99.90;;;;;;5054516;28;20033;-73
2022/11/17 08:03:03;;;;;;;15.35;14.65;;;7.40;99.90;;;;;;5052991;28;20029;-74
2022/11/17 08:05:30;;;;;;;16.25;15.52;;;7.50;99.90;;;;;;5052964;28;20446;-74
2022/11/17 08:07:58;;;;;;;16.60;15.80;;;7.40;99.90;;;;;;5052643;28;20454;-74
2022/11/17 08:10:25;;;;;;;17.13;16.42;;;7.50;99.90;;;;;;5062678;28;20021;-74
2022/11/17 08:12:52;;;;;;;16.17;15.57;;;7.50;99.90;;;;;;5074045;28;20016;-73
2022/11/17 08:15:18;;;;;;;17.80;17.02;;;7.50;99.90;;;;;;5072749;28;20273;-74
2022/11/17 08:17:43;;;;;;;20.77;19.98;;;7.50;99.90;;;;;;5057624;28;20071;-74
2022/11/17 08:20:11;;;;;;;17.55;16.50;;;7.40;99.90;;;;;;5053217;28;20028;-74
2022/11/17 08:22:37;;;;;;;23.83;21.80;;;7.50;99.90;;;;;;5054160;28;20017;-74
2022/11/17 08:25:02;;;;;;;17.23;16.40;;;7.50;99.90;;;;;;5052886;28;20116;-74
2022/11/17 08:27:28;;;;;;;20.13;19.13;;;7.50;99.90;;;;;;5056148;28;20059;-74
2022/11/17 08:29:53;;;;;;;21.40;20.33;;;7.60;99.90;;;;;;5074378;28;20050;-74
2022/11/17 08:32:19;;;;;;;19.35;18.60;;;7.60;99.90;;;;;;5074026;28;20386;-74
2022/11/17 08:34:44;;;;;;;17.05;16.35;;;7.60;99.90;;;;;;5072977;28;20028;-74
2022/11/17 08:37:10;;;;;;;19.02;18.33;;;7.70;99.90;;;;;;5073901;28;20021;-74
2022/11/17 08:39:35;;;;;;;18.20;17.50;;;7.70;99.90;;;;;;5073640;28;20033;-74
2022/11/17 08:42:01;;;;;;;20.25;19.45;;;7.70;99.90;;;;;;5073858;28;20059;-74
2022/11/17 08:44:27;;;;;;;19.60;18.80;;;7.70;99.90;;;;;;5073874;28;20036;-74
2022/11/17 08:46:52;;;;;;;20.48;19.67;;;7.70;99.90;;;;;;5073193;28;20052;-74
2022/11/17 08:49:18;;;;;;;18.40;17.55;;;7.70;99.90;;;;;;5073581;28;20033;-74
2022/11/17 08:51:43;;;;;;;21.13;20.13;;;7.70;99.90;;;;;;5073116;28;20025;-74
2022/11/17 08:54:11;;;;;;;18.98;18.27;;;7.70;99.90;;;;;;5073139;28;20025;-74
2022/11/17 08:56:37;;;;;;;21.95;20.73;;;7.70;99.90;;;;;;5052604;28;20032;-74
2022/11/17 08:59:02;;;;;;;21.50;20.60;;;7.70;99.90;;;;;;5052657;28;20048;-74
2022/11/17 09:01:28;;;;;;;18.77;18.08;;;7.70;99.90;;;;;;5053083;28;20065;-74
2022/11/17 09:03:53;;;;;;;19.73;19.02;;;7.70;99.90;;;;;;5051888;28;20482;-73
2022/11/17 09:06:19;;;;;;;21.63;20.55;;;7.80;99.90;;;;;;5051739;28;20036;-74
2022/11/17 09:08:45;;;;;;;19.38;18.67;;;7.80;99.90;;;;;;5051909;28;20499;-74
2022/11/17 09:11:11;;;;;;;23.08;21.83;;;7.80;99.90;;;;;;5052908;28;20024;-73
2022/11/17 09:13:37;;;;;;;21.85;20.98;;;7.80;99.90;;;;;;5072936;28;20287;-73
2022/11/17 09:16:09;;;;;;;21.30;20.50;;;7.80;99.90;;;;;;5070976;28;20024;-73
2022/11/17 09:18:36;;;;;;;21.10;20.25;;;7.90;99.90;;;;;;5051060;28;20483;-73
2022/11/17 09:21:14;;;;;;;23.02;22.13;;;7.90;99.90;;;;;;5052768;28;20570;-73
2022/11/17 09:23:40;;;;;;;20.75;19.95;;;8.10;99.90;;;;;;5053207;28;20449;-74
2022/11/17 09:26:11;;;;;;;21.48;20.67;;;8.10;99.90;;;;;;5061540;28;20108;-73
2022/11/17 09:28:36;;;;;;;22.50;21.70;;;8.10;99.90;;;;;;5067338;28;20355;-73
2022/11/17 09:31:11;;;;;;;25.52;24.52;;;8.10;99.90;;;;;;5069021;28;20071;-73
2022/11/17 09:33:37;;;;;;;23.10;22.25;;;8.10;99.90;;;;;;5068401;28;20074;-74
2022/11/17 09:36:03;;;;;;;21.95;21.05;;;8.10;99.90;;;;;;5072326;28;20021;-74
2022/11/17 09:38:29;;;;;;;23.80;22.80;;;8.20;99.90;;;;;;5071056;28;20510;-74
2022/11/17 09:40:57;;;;;;;22.55;21.58;;;8.30;99.90;;;;;;5071349;28;20063;-74
2022/11/17 09:43:33;;;;;;;21.13;20.33;;;8.30;99.90;;;;;;5071106;28;20028;-73
2022/11/17 09:46:11;;;;;;;20.38;19.50;;;8.40;99.90;;;;;;5070087;28;20025;-73
2022/11/17 09:48:47;;;;;;;21.20;20.40;;;8.50;99.90;;;;;;5070230;28;20035;-73
2022/11/17 09:51:17;;;;;;;22.65;21.65;;;8.60;99.90;;;;;;5072298;28;20069;-74
2022/11/17 09:53:48;;;;;;;20.10;19.30;;;8.70;99.90;;;;;;5070621;28;20508;-74
2022/11/17 09:56:14;;;;;;;21.15;20.25;;;8.70;99.90;;;;;;5071919;28;20039;-73
2022/11/17 09:58:51;;;;;;;20.92;20.13;;;8.70;99.90;;;;;;5071777;28;20028;-74
2022/11/17 10:01:19;;;;;;;21.42;20.63;;;8.70;99.90;;;;;;5071545;28;20383;-73
2022/11/17 10:03:46;;;;;;;22.40;21.60;;;8.70;99.90;;;;;;5071594;28;20027;-73
2022/11/17 10:06:15;;;;;;;22.92;22.02;;;8.70;99.90;;;;;;5072449;28;20127;-73
2022/11/17 10:08:59;;;;;;;21.58;20.60;;;8.80;99.90;;;;;;5071161;28;20113;-73
2022/11/17 10:11:34;;;;;;;21.35;20.55;;;8.80;99.90;;;;;;5071539;28;20533;-73
2022/11/17 10:14:17;;;;;;;23.75;22.85;;;8.70;99.90;;;;;;5070677;28;20020;-73
2022/11/17 10:16:49;;;;;;;21.20;20.40;;;8.70;99.90;;;;;;5071069;28;20036;-73
2022/11/17 10:19:17;;;;;;;20.45;19.67;;;8.60;99.90;;;;;;5075668;28;20027;-73
2022/11/17 10:21:44;;;;;;;21.38;20.48;;;8.70;99.90;;;;;;5058251;28;20021;-73
2022/11/17 10:24:09;;;;;;;24.45;23.55;;;8.80;99.90;;;;;;5076381;28;20582;-73
2022/11/17 10:26:48;;;;;;;21.40;20.60;;;8.70;99.90;;;;;;5074263;28;20024;-74
2022/11/17 10:29:20;;;;;;;18.08;17.38;;;8.80;99.90;;;;;;5091108;28;20028;-73
2022/11/17 10:31:46;;;;;;;20.70;19.80;;;8.80;99.90;;;;;;5077970;28;20020;-74
2022/11/17 10:34:36;;;;;;;18.58;17.80;;;8.80;99.90;;;;;;5079169;28;20024;-73
2022/11/17 10:37:14;;;;;;;19.30;18.52;;;8.80;99.90;;;;;;5077022;28;20457;-73
2022/11/17 10:39:41;;;;;;;18.77;18.08;;;8.70;99.90;;;;;;5051611;28;20021;-73
2022/11/17 10:42:26;;;;;;;18.48;17.77;;;8.60;99.90;;;;;;5051574;28;20094;-73
2022/11/17 10:44:55;;;;;;;18.73;18.02;;;8.50;99.90;;;;;;5050097;28;20029;-73
2022/11/17 10:47:26;;;;;;;18.73;18.02;;;8.50;99.90;;;;;;5069834;28;20504;-73
2022/11/17 10:50:19;;;;;;;17.65;17.05;;;8.50;99.90;;;;;;5058924;28;20390;-73
2022/11/17 10:52:46;;;;;;;16.88;16.27;;;8.70;99.90;;;;;;5065158;28;20028;-73
2022/11/17 10:55:26;;;;;;;14.27;13.77;;;8.90;99.90;;;;;;5080882;28;20043;-73
2022/11/17 10:57:56;;;;;;;16.50;15.90;;;9.10;99.90;;;;;;5061105;28;20025;-73
2022/11/17 11:00:34;;;;;;;14.20;13.70;;;9.30;99.90;;;;;;5064429;28;20036;-73
2022/11/17 11:03:18;;;;;;;15.48;14.88;;;9.40;99.90;;;;;;5063675;28;20052;-73
2022/11/17 11:05:57;;;;;;;15.35;14.75;;;9.40;99.90;;;;;;5070772;28;20021;-73
2022/11/17 11:08:28;;;;;;;19.20;18.50;;;9.30;99.90;;;;;;5070225;28;20038;-73
2022/11/17 11:10:57;;;;;;;16.20;15.60;;;9.50;99.90;;;;;;5070833;28;20017;-73
2022/11/17 11:13:42;;;;;;;18.60;17.90;;;9.60;99.90;;;;;;5071908;28;20090;-73
2022/11/17 11:16:10;;;;;;;20.05;19.35;;;9.60;99.90;;;;;;5073233;28;20028;-73
2022/11/17 11:18:35;;;;;;;21.40;20.40;;;9.80;99.90;;;;;;5063994;28;20021;-73
2022/11/17 11:21:25;;;;;;;18.75;17.95;;;9.60;99.90;;;;;;5073955;28;20028;-73
2022/11/17 11:24:12;;;;;;;16.63;16.02;;;9.70;99.90;;;;;;5075209;28;20036;-73
2022/11/17 11:26:56;;;;;;;18.40;17.60;;;9.70;99.90;;;;;;5067132;28;20442;-73
2022/11/17 11:29:31;;;;;;;21.23;20.42;;;9.60;99.90;;;;;;5072480;28;20025;-73
2022/11/17 11:32:07;;;;;;;18.98;18.27;;;9.50;99.90;;;;;;5075096;28;20029;-73
2022/11/17 11:34:57;;;;;;;20.02;19.33;;;9.50;99.90;;;;;;5074928;28;20064;-73
2022/11/17 11:37:34;;;;;;;19.92;19.23;;;9.30;99.90;;;;;;5073569;28;20024;-73
2022/11/17 11:40:25;;;;;;;19.77;19.08;;;9.30;99.90;;;;;;5075011;28;20099;-74
2022/11/17 11:43:03;;;;;;;19.75;18.85;;;9.10;99.90;;;;;;5059315;28;20142;-74
2022/11/17 11:45:32;;;;;;;16.45;15.85;;;9.10;99.90;;;;;;5070713;28;20528;-74
2022/11/17 11:48:09;;;;;;;16.58;15.93;;;9.00;99.90;;;;;;5083531;28;20035;-74
2022/11/17 11:50:47;;;;;;;20.30;19.38;;;9.00;99.90;;;;;;5066113;28;20433;-74
2022/11/17 11:53:33;;;;;;;15.90;15.30;;;9.00;99.90;;;;;;5071459;28;20036;-74
2022/11/17 11:56:18;;;;;;;18.63;17.65;;;9.10;99.90;;;;;;5065263;28;20033;-74
2022/11/17 11:58:51;;;;;;;16.50;15.90;;;9.10;99.90;;;;;;5080752;28;20033;-74
2022/11/17 12:01:20;;;;;;;14.32;13.82;;;9.10;99.90;;;;;;5085841;28;20028;-74
2022/11/17 12:03:52;;;;;;;14.00;13.50;;;9.20;99.90;;;;;;5058556;28;20021;-75
2022/11/17 12:06:41;;;;;;;15.52;14.93;;;9.30;99.90;;;;;;5069404;28;20522;-74
2022/11/17 12:09:24;;;;;;;15.85;15.25;;;9.40;99.90;;;;;;5057988;28;20021;-73
2022/11/17 12:12:01;;;;;;;17.75;17.15;;;9.50;99.90;;;;;;5063332;28;20107;-72
2022/11/17 12:14:33;;;;;;;18.10;17.17;;;9.50;99.90;;;;;;5072977;28;20033;-72
2022/11/17 12:17:05;;;;;;;17.63;17.00;;;9.40;99.90;;;;;;5066922;28;20560;-72
2022/11/17 12:19:43;;;;;;;19.30;18.60;;;9.40;99.90;;;;;;5079009;28;20033;-72
2022/11/17 12:22:23;;;;;;;19.27;18.48;;;9.30;99.90;;;;;;5084383;28;20039;-72
2022/11/17 12:24:59;;;;;;;19.02;18.15;;;9.30;99.90;;;;;;5059620;28;20497;-72
2022/11/17 12:27:33;;;;;;;26.20;24.80;;;9.20;99.90;;;;;;5081298;28;20469;-72
2022/11/17 12:30:03;;;;;;;19.00;18.30;;;9.30;99.90;;;;;;5085465;28;20030;-72
2022/11/17 12:32:47;;;;;;;18.92;18.13;;;9.10;99.90;;;;;;5076314;28;20032;-73
2022/11/17 12:35:30;;;;;;;21.77;20.75;;;9.10;99.90;;;;;;5073549;28;20029;-73
2022/11/17 12:38:15;;;;;;;18.35;17.65;;;9.00;99.90;;;;;;5071686;28;20045;-73
2022/11/17 12:40:48;;;;;;;19.05;18.25;;;9.00;99.90;;;;;;5073504;28;20501;-73
2022/11/17 12:43:14;;;;;;;18.92;18.23;;;9.00;99.90;;;;;;5073082;28;20348;-73
2022/11/17 12:45:54;;;;;;;18.52;17.83;;;9.00;99.90;;;;;;5073340;28;20036;-72
2022/11/17 12:48:21;;;;;;;23.23;22.27;;;9.10;99.90;;;;;;5071976;28;20031;-73
2022/11/17 12:51:10;;;;;;;18.67;17.98;;;9.10;99.90;;;;;;5071899;28;20024;-72
2022/11/17 12:53:59;;;;;;;20.42;19.67;;;9.20;99.90;;;;;;5070873;28;20032;-73
2022/11/17 12:56:40;;;;;;;19.45;18.75;;;9.00;99.90;;;;;;5084626;28;20032;-73
2022/11/17 12:59:24;;;;;;;21.92;21.13;;;9.10;99.90;;;;;;5072378;28;20032;-73
2022/11/17 13:02:28;;;;;;;21.98;20.88;;;9.00;99.90;;;;;;5071455;28;20021;-72
2022/11/17 13:05:19;;;;;;;20.17;19.48;;;9.00;99.90;;;;;;5072997;28;20037;-72
2022/11/17 13:07:45;;;;;;;20.00;19.30;;;9.10;99.90;;;;;;5072463;28;20032;-72
2022/11/17 13:10:28;;;;;;;21.55;20.75;;;9.10;99.90;;;;;;5072976;28;20444;-72
2022/11/17 13:13:20;;;;;;;21.13;20.33;;;9.10;99.90;;;;;;5057586;28;20100;-72
2022/11/17 13:15:57;;;;;;;20.98;20.17;;;9.20;99.90;;;;;;5052773;28;20047;-72
2022/11/17 13:18:38;;;;;;;22.50;21.70;;;9.30;99.90;;;;;;5057682;28;20028;-72
2022/11/17 13:21:34;;;;;;;22.20;21.40;;;9.40;99.90;;;;;;5056711;28;20040;-72
2022/11/17 13:24:00;;;;;;;22.58;21.77;;;9.50;99.90;;;;;;5052420;28;20083;-72
2022/11/17 13:26:34;;;;;;;22.15;21.35;;;9.50;99.90;;;;;;5059092;28;20020;-73
2022/11/17 13:29:03;;;;;;;25.15;24.25;;;9.50;99.90;;;;;;5071882;28;20025;-72
2022/11/17 13:31:28;;;;;;;21.83;21.02;;;9.60;99.90;;;;;;5071268;28;20025;-73